createdAt,value
2023-01-29T00:00:23.473Z,9.07
2023-01-29T00:02:52.510Z,8.10
2023-01-29T00:05:27.851Z,8.40
2023-01-29T00:07:59.132Z,10.63
2023-01-29T00:10:28.359Z,8.37
2023-01-29T00:12:57.208Z,10.07
2023-01-29T00:15:26.035Z,9.00
2023-01-29T00:17:54.893Z,13.37
2023-01-29T00:20:23.905Z,8.63
2023-01-29T00:22:52.675Z,9.97
2023-01-29T00:25:22.890Z,10.20
2023-01-29T00:27:54.668Z,9.07
2023-01-29T00:30:23.503Z,9.73
2023-01-29T00:32:53.272Z,9.40
2023-01-29T00:35:22.029Z,10.10
2023-01-29T00:37:50.784Z,8.20
2023-01-29T00:40:19.863Z,10.70
2023-01-29T00:43:07.886Z,8.37
2023-01-29T00:45:37.306Z,11.43
2023-01-29T00:48:06.589Z,10.90
2023-01-29T00:50:35.340Z,9.80
2023-01-29T00:53:04.127Z,10.80
2023-01-29T00:55:32.844Z,10.67
2023-01-29T00:58:03.028Z,11.63
2023-01-29T01:00:31.782Z,11.80
2023-01-29T01:03:08.566Z,11.83
2023-01-29T01:05:39.350Z,12.10
2023-01-29T01:08:29.125Z,11.30
2023-01-29T01:11:01.472Z,15.60
2023-01-29T01:13:33.505Z,13.90
2023-01-29T01:16:02.438Z,12.00
2023-01-29T01:18:32.095Z,16.07
2023-01-29T01:21:00.977Z,17.80
2023-01-29T01:23:29.729Z,13.60
2023-01-29T01:25:58.600Z,11.73
2023-01-29T01:28:27.642Z,14.07
2023-01-29T01:30:57.883Z,12.47
2023-01-29T01:33:26.652Z,10.80
2023-01-29T01:35:55.381Z,12.97
2023-01-29T01:38:24.163Z,10.77
2023-01-29T01:40:52.895Z,10.70
2023-01-29T01:43:21.682Z,10.70
2023-01-29T01:45:50.569Z,13.00
2023-01-29T01:48:24.366Z,13.87
2023-01-29T01:50:55.328Z,12.17
2023-01-29T01:53:27.567Z,10.93
2023-01-29T01:56:02.127Z,13.20
2023-01-29T01:58:36.113Z,11.63
2023-01-29T02:01:08.250Z,10.30
2023-01-29T02:04:00.612Z,9.43
2023-01-29T02:06:46.774Z,9.67
2023-01-29T02:09:35.810Z,9.57
2023-01-29T02:12:06.083Z,10.43
2023-01-29T02:14:39.065Z,8.80
2023-01-29T02:17:09.516Z,9.07
2023-01-29T02:19:52.124Z,8.60
2023-01-29T02:22:43.402Z,9.70
2023-01-29T02:25:35.836Z,9.40
2023-01-29T02:28:25.876Z,8.70
2023-01-29T02:31:02.724Z,12.50
2023-01-29T02:33:43.436Z,9.63
2023-01-29T02:36:24.591Z,10.13
2023-01-29T02:39:05.922Z,10.83
2023-01-29T02:41:44.207Z,9.97
2023-01-29T02:44:23.376Z,10.67
2023-01-29T02:46:59.892Z,11.70
2023-01-29T02:49:34.845Z,11.17
2023-01-29T02:52:11.265Z,11.00
2023-01-29T02:54:46.305Z,11.70
2023-01-29T02:57:21.087Z,9.80
2023-01-29T02:59:55.771Z,14.27
2023-01-29T03:02:32.841Z,10.23
2023-01-29T03:05:04.513Z,12.60
2023-01-29T03:07:45.141Z,17.70
2023-01-29T03:10:18.928Z,12.00
2023-01-29T03:12:55.751Z,12.27
2023-01-29T03:15:32.557Z,11.43
2023-01-29T03:18:06.831Z,10.27
2023-01-29T03:20:38.954Z,10.90
2023-01-29T03:23:13.292Z,10.27
2023-01-29T03:26:01.600Z,11.83
2023-01-29T03:28:48.757Z,9.67
2023-01-29T03:31:37.230Z,10.67
2023-01-29T03:34:16.588Z,10.77
2023-01-29T03:36:55.992Z,10.37
2023-01-29T03:39:29.544Z,8.50
2023-01-29T03:42:04.306Z,8.60
2023-01-29T03:44:40.586Z,8.70
2023-01-29T03:47:20.458Z,14.00
2023-01-29T03:49:59.188Z,9.87
2023-01-29T03:52:35.271Z,8.60
2023-01-29T03:55:12.019Z,8.43
2023-01-29T03:57:45.793Z,8.13
2023-01-29T04:00:19.193Z,10.37
2023-01-29T04:02:57.296Z,9.47
2023-01-29T04:05:31.495Z,7.67
2023-01-29T04:08:07.737Z,8.97
2023-01-29T04:10:40.428Z,8.20
2023-01-29T04:13:12.927Z,9.60
2023-01-29T04:15:46.724Z,9.50
2023-01-29T04:18:17.343Z,8.47
2023-01-29T04:20:46.932Z,10.27
2023-01-29T04:23:23.540Z,9.90
2023-01-29T04:26:08.303Z,8.40
2023-01-29T04:28:53.720Z,11.77
2023-01-29T04:31:25.603Z,8.93
2023-01-29T04:34:08.608Z,9.30
2023-01-29T04:36:44.390Z,9.30
2023-01-29T04:39:19.581Z,9.90
2023-01-29T04:41:54.230Z,9.40
2023-01-29T04:44:27.643Z,12.90
2023-01-29T04:47:04.522Z,9.20
2023-01-29T04:49:40.789Z,11.03
2023-01-29T04:52:17.125Z,8.60
2023-01-29T04:54:56.509Z,9.73
2023-01-29T04:57:32.959Z,11.13
2023-01-29T05:00:08.410Z,8.90
2023-01-29T05:02:41.048Z,9.00
2023-01-29T05:05:12.306Z,10.30
2023-01-29T05:07:42.094Z,9.67
2023-01-29T05:10:13.421Z,13.13
2023-01-29T05:12:45.166Z,11.10
2023-01-29T05:15:21.500Z,11.00
2023-01-29T05:17:50.355Z,12.07
2023-01-29T05:20:21.503Z,10.93
2023-01-29T05:22:50.314Z,9.17
2023-01-29T05:25:23.863Z,11.00
2023-01-29T05:28:08.583Z,9.00
2023-01-29T05:30:38.864Z,11.40
2023-01-29T05:33:14.681Z,13.03
2023-01-29T05:35:45.096Z,12.67
2023-01-29T05:38:14.108Z,11.60
2023-01-29T05:40:43.054Z,8.80
2023-01-29T05:43:18.468Z,12.77
2023-01-29T05:45:55.067Z,10.83
2023-01-29T05:48:24.158Z,9.27
2023-01-29T05:50:54.386Z,11.33
2023-01-29T05:53:23.121Z,11.00
2023-01-29T05:55:51.919Z,11.23
2023-01-29T05:58:21.042Z,10.23
2023-01-29T06:00:50.144Z,9.43
2023-01-29T06:03:19.062Z,10.10
2023-01-29T06:05:47.804Z,9.70
2023-01-29T06:08:17.963Z,13.57
2023-01-29T06:10:46.792Z,9.83
2023-01-29T06:13:15.594Z,9.60
2023-01-29T06:15:44.327Z,9.53
2023-01-29T06:18:13.137Z,10.10
2023-01-29T06:20:41.928Z,9.10
2023-01-29T06:23:10.751Z,10.03
2023-01-29T06:25:40.959Z,10.50
2023-01-29T06:28:09.641Z,14.43
2023-01-29T06:30:38.436Z,13.40
2023-01-29T06:33:07.148Z,9.60
2023-01-29T06:35:35.888Z,11.50
2023-01-29T06:38:04.604Z,13.90
2023-01-29T06:40:33.699Z,12.10
2023-01-29T06:43:03.936Z,10.17
2023-01-29T06:45:32.700Z,13.40
2023-01-29T06:48:01.772Z,10.43
2023-01-29T06:50:30.550Z,10.17
2023-01-29T06:53:00.863Z,10.50
2023-01-29T06:55:29.563Z,10.77
2023-01-29T06:57:58.271Z,12.50
2023-01-29T07:00:30.584Z,10.90
2023-01-29T07:02:59.994Z,10.30
2023-01-29T07:05:28.858Z,9.50
2023-01-29T07:07:57.813Z,9.43
2023-01-29T07:10:26.684Z,11.20
2023-01-29T07:12:55.479Z,11.63
2023-01-29T07:15:24.402Z,11.40
2023-01-29T07:18:02.207Z,12.13
2023-01-29T07:20:32.754Z,11.30
2023-01-29T07:23:01.563Z,10.70
2023-01-29T07:25:30.789Z,11.67
2023-01-29T07:28:02.319Z,11.60
2023-01-29T07:30:31.231Z,11.23
2023-01-29T07:33:07.351Z,10.77
2023-01-29T07:35:39.143Z,10.37
2023-01-29T07:38:08.156Z,13.13
2023-01-29T07:40:37.141Z,11.80
2023-01-29T07:43:09.296Z,10.70
2023-01-29T07:45:39.760Z,10.17
2023-01-29T07:48:12.748Z,10.60
2023-01-29T07:50:42.396Z,9.80
2023-01-29T07:53:15.231Z,9.80
2023-01-29T07:55:46.522Z,10.00
2023-01-29T07:58:15.325Z,10.77
2023-01-29T08:00:44.064Z,9.63
2023-01-29T08:03:16.907Z,10.17
2023-01-29T08:05:46.284Z,12.73
2023-01-29T08:08:15.273Z,10.27
2023-01-29T08:10:44.284Z,10.87
2023-01-29T08:13:13.071Z,9.80
2023-01-29T08:15:44.800Z,11.33
2023-01-29T08:18:15.912Z,10.50
2023-01-29T08:20:44.683Z,11.50
2023-01-29T08:23:16.072Z,11.07
2023-01-29T08:25:45.145Z,15.33
2023-01-29T08:28:14.184Z,11.13
2023-01-29T08:30:44.292Z,11.60
2023-01-29T08:33:14.623Z,12.30
2023-01-29T08:35:44.418Z,11.80
2023-01-29T08:38:13.210Z,12.50
2023-01-29T08:40:41.962Z,13.10
2023-01-29T08:43:12.043Z,13.60
2023-01-29T08:45:43.139Z,13.27
2023-01-29T08:48:12.716Z,10.60
2023-01-29T08:50:43.062Z,10.13
2023-01-29T08:53:12.289Z,12.50
2023-01-29T08:55:42.181Z,13.17
2023-01-29T08:58:12.750Z,12.13
2023-01-29T09:00:41.515Z,13.40
2023-01-29T09:03:10.338Z,28.93
2023-01-29T09:05:40.370Z,11.50
2023-01-29T09:08:11.692Z,13.83
2023-01-29T09:10:40.637Z,12.50
2023-01-29T09:13:09.469Z,13.33
2023-01-29T09:15:38.199Z,13.73
2023-01-29T09:18:07.570Z,10.77
2023-01-29T09:20:38.207Z,11.57
2023-01-29T09:23:07.735Z,14.70
2023-01-29T09:25:38.657Z,10.53
2023-01-29T09:28:07.851Z,12.90
2023-01-29T09:30:38.372Z,13.07
2023-01-29T09:33:08.544Z,12.97
2023-01-29T09:35:37.280Z,13.87
2023-01-29T09:38:06.080Z,10.47
2023-01-29T09:40:42.747Z,13.07
2023-01-29T09:43:17.333Z,13.27
2023-01-29T09:45:54.840Z,12.50
2023-01-29T09:48:27.838Z,12.97
2023-01-29T09:50:59.498Z,13.77
2023-01-29T09:53:33.797Z,15.03
2023-01-29T09:56:10.448Z,14.00
2023-01-29T09:58:41.258Z,18.00
2023-01-29T10:01:16.745Z,16.10
2023-01-29T10:04:04.796Z,13.30
2023-01-29T10:06:45.002Z,17.30
2023-01-29T10:09:45.493Z,14.90
2023-01-29T10:12:30.247Z,11.57
2023-01-29T10:15:08.842Z,14.83
2023-01-29T10:17:50.694Z,13.13
2023-01-29T10:20:39.226Z,12.53
2023-01-29T10:23:20.725Z,13.33
2023-01-29T10:25:50.514Z,12.90
2023-01-29T10:28:24.406Z,14.17
2023-01-29T10:30:57.718Z,13.37
2023-01-29T10:33:48.750Z,11.53
2023-01-29T10:36:28.098Z,13.00
2023-01-29T10:38:57.654Z,12.80
2023-01-29T10:41:44.453Z,13.40
2023-01-29T10:44:28.825Z,11.43
2023-01-29T10:47:12.031Z,13.73
2023-01-29T10:50:07.825Z,11.43
2023-01-29T10:52:46.470Z,12.50
2023-01-29T10:55:29.209Z,11.30
2023-01-29T10:58:08.270Z,12.67
2023-01-29T11:00:40.763Z,10.97
2023-01-29T11:03:27.575Z,12.37
2023-01-29T11:06:04.015Z,12.10
2023-01-29T11:08:39.138Z,14.33
2023-01-29T11:11:10.877Z,12.13
2023-01-29T11:13:43.743Z,11.97
2023-01-29T11:16:14.790Z,12.70
2023-01-29T11:18:58.291Z,14.47
2023-01-29T11:21:28.506Z,11.53
2023-01-29T11:24:09.375Z,12.17
2023-01-29T11:26:42.116Z,12.23
2023-01-29T11:29:46.523Z,14.07
2023-01-29T11:32:27.368Z,13.20
2023-01-29T11:35:01.345Z,12.77
2023-01-29T11:37:40.826Z,11.93
2023-01-29T11:40:35.087Z,15.70
2023-01-29T11:43:22.711Z,10.80
2023-01-29T11:45:53.520Z,10.90
2023-01-29T11:48:33.670Z,9.50
2023-01-29T11:51:04.917Z,10.60
2023-01-29T11:53:42.569Z,11.40
2023-01-29T11:56:25.282Z,11.33
2023-01-29T11:58:57.880Z,11.37
2023-01-29T12:01:34.664Z,11.20
2023-01-29T12:04:14.725Z,10.60
2023-01-29T12:06:47.989Z,10.30
2023-01-29T12:09:19.746Z,11.73
2023-01-29T12:11:48.959Z,11.43
2023-01-29T12:14:33.717Z,22.70
2023-01-29T12:17:07.833Z,10.83
2023-01-29T12:19:44.366Z,11.10
2023-01-29T12:22:20.236Z,9.80
2023-01-29T12:24:56.062Z,12.47
2023-01-29T12:27:30.437Z,10.43
2023-01-29T12:30:07.942Z,9.23
2023-01-29T12:32:42.554Z,10.27
2023-01-29T12:35:19.766Z,10.23
2023-01-29T12:37:56.278Z,8.73
2023-01-29T12:40:30.075Z,13.63
2023-01-29T12:43:07.386Z,9.60
2023-01-29T12:45:38.225Z,8.77
2023-01-29T12:48:10.565Z,9.60
2023-01-29T12:50:41.311Z,10.10
2023-01-29T12:53:24.599Z,7.37
2023-01-29T12:55:59.285Z,7.23
2023-01-29T12:58:35.059Z,7.10
2023-01-29T13:01:13.507Z,7.07
2023-01-29T13:03:50.857Z,7.60
2023-01-29T13:06:27.253Z,8.73
2023-01-29T13:09:00.205Z,8.23
2023-01-29T13:11:35.144Z,9.27
2023-01-29T13:14:07.954Z,7.77
2023-01-29T13:16:40.401Z,7.33
2023-01-29T13:19:22.933Z,8.23
2023-01-29T13:21:55.824Z,7.43
2023-01-29T13:24:30.006Z,9.30
2023-01-29T13:27:00.487Z,11.13
2023-01-29T13:29:32.776Z,10.27
2023-01-29T13:32:04.984Z,11.67
2023-01-29T13:34:36.937Z,9.70
2023-01-29T13:37:14.074Z,8.33
2023-01-29T13:39:50.093Z,10.90
2023-01-29T13:42:23.708Z,12.07
2023-01-29T13:44:54.535Z,9.80
2023-01-29T13:47:27.163Z,10.33
2023-01-29T13:49:59.572Z,11.63
2023-01-29T13:52:37.172Z,13.33
2023-01-29T13:55:08.638Z,9.83
2023-01-29T13:57:49.133Z,11.27
2023-01-29T14:01:01.657Z,12.40
2023-01-29T14:04:04.489Z,12.27
2023-01-29T14:06:47.160Z,14.33
2023-01-29T14:10:06.538Z,11.90
2023-01-29T14:12:47.356Z,10.80
2023-01-29T14:15:28.602Z,12.90
2023-01-29T14:18:16.080Z,14.63
2023-01-29T14:20:56.268Z,14.97
2023-01-29T14:23:33.485Z,12.90
2023-01-29T14:26:06.697Z,12.30
2023-01-29T14:28:37.199Z,14.87
2023-01-29T14:31:08.183Z,13.00
2023-01-29T14:33:41.818Z,11.13
2023-01-29T14:36:15.317Z,12.17
2023-01-29T14:38:51.827Z,11.07
2023-01-29T14:41:29.527Z,10.23
2023-01-29T14:44:35.584Z,15.47
2023-01-29T14:47:06.466Z,12.50
2023-01-29T14:49:52.654Z,12.33
2023-01-29T14:52:24.508Z,12.87
2023-01-29T14:54:59.466Z,14.20
2023-01-29T14:57:32.685Z,15.20
2023-01-29T15:00:05.708Z,14.60
2023-01-29T15:02:42.000Z,12.73
2023-01-29T15:05:17.038Z,15.67
2023-01-29T15:07:54.789Z,13.27
2023-01-29T15:10:28.734Z,15.40
2023-01-29T15:13:07.367Z,17.43
2023-01-29T15:15:42.530Z,14.67
2023-01-29T15:18:17.268Z,16.23
2023-01-29T15:20:47.097Z,16.23
2023-01-29T15:23:35.527Z,18.43
2023-01-29T15:26:09.886Z,14.37
2023-01-29T15:28:43.490Z,15.80
2023-01-29T15:31:19.538Z,17.20
2023-01-29T15:33:52.219Z,17.90
2023-01-29T15:36:25.351Z,17.03
2023-01-29T15:39:16.373Z,17.87
2023-01-29T15:41:46.714Z,17.23
2023-01-29T15:44:20.541Z,20.43
2023-01-29T15:46:54.832Z,17.57
2023-01-29T15:49:31.375Z,16.93
2023-01-29T15:52:04.952Z,16.37
2023-01-29T15:54:37.314Z,17.33
2023-01-29T15:57:07.885Z,17.90
2023-01-29T15:59:45.920Z,18.07
2023-01-29T16:02:30.264Z,18.87
2023-01-29T16:05:02.863Z,15.60
2023-01-29T16:07:34.228Z,17.43
2023-01-29T16:10:04.315Z,14.27
2023-01-29T16:12:38.223Z,14.90
2023-01-29T16:15:21.898Z,15.63
2023-01-29T16:17:52.865Z,13.30
2023-01-29T16:20:35.145Z,15.80
2023-01-29T16:23:05.805Z,13.87
2023-01-29T16:25:39.015Z,15.00
2023-01-29T16:28:12.610Z,16.00
2023-01-29T16:30:47.040Z,12.97
2023-01-29T16:33:20.133Z,18.23
2023-01-29T16:35:54.537Z,13.40
2023-01-29T16:38:31.272Z,16.90
2023-01-29T16:41:18.462Z,14.17
2023-01-29T16:43:52.488Z,16.67
2023-01-29T16:46:34.013Z,16.97
2023-01-29T16:49:06.423Z,14.90
2023-01-29T16:51:41.657Z,18.43
2023-01-29T16:54:19.465Z,16.70
2023-01-29T16:56:52.713Z,18.27
2023-01-29T16:59:28.098Z,16.93
2023-01-29T17:01:59.635Z,20.00
2023-01-29T17:04:32.295Z,19.30
2023-01-29T17:07:05.296Z,17.37
2023-01-29T17:09:40.823Z,16.33
2023-01-29T17:12:18.567Z,14.57
2023-01-29T17:14:58.270Z,15.00
2023-01-29T17:17:36.238Z,17.30
2023-01-29T17:20:16.493Z,15.80
2023-01-29T17:22:47.890Z,20.93
2023-01-29T17:25:19.123Z,18.30
2023-01-29T17:27:52.593Z,25.83
2023-01-29T17:30:35.638Z,21.43
2023-01-29T17:33:15.374Z,16.23
2023-01-29T17:35:47.217Z,18.23
2023-01-29T17:38:25.832Z,18.80
2023-01-29T17:41:01.847Z,16.33
2023-01-29T17:43:33.382Z,14.53
2023-01-29T17:46:04.558Z,15.17
2023-01-29T17:48:36.768Z,15.87
2023-01-29T17:51:07.448Z,13.67
2023-01-29T17:53:46.611Z,13.20
2023-01-29T17:56:19.606Z,15.57
2023-01-29T17:58:50.049Z,18.67
2023-01-29T18:01:24.742Z,14.73
2023-01-29T18:03:56.730Z,17.57
2023-01-29T18:06:31.203Z,15.70
2023-01-29T18:09:01.618Z,19.63
2023-01-29T18:11:33.187Z,17.73
2023-01-29T18:14:13.554Z,15.57
2023-01-29T18:16:46.048Z,16.50
2023-01-29T18:19:22.732Z,15.20
2023-01-29T18:21:54.215Z,12.93
2023-01-29T18:24:27.245Z,15.43
2023-01-29T18:26:57.823Z,16.83
2023-01-29T18:29:31.116Z,16.50
2023-01-29T18:32:02.825Z,15.80
2023-01-29T18:34:35.060Z,16.93
2023-01-29T18:37:05.145Z,17.50
2023-01-29T18:39:35.911Z,17.57
2023-01-29T18:42:07.816Z,19.57
2023-01-29T18:44:42.159Z,24.20
2023-01-29T18:47:13.202Z,21.87
2023-01-29T18:49:46.013Z,27.43
2023-01-29T18:52:17.291Z,22.30
2023-01-29T18:54:50.584Z,22.00
2023-01-29T18:58:34.678Z,20.90
2023-01-29T19:00:17.056Z,22.43
2023-01-29T19:02:49.716Z,24.40
2023-01-29T19:05:26.425Z,22.20
2023-01-29T19:07:58.620Z,23.00
2023-01-29T19:10:33.023Z,19.47
2023-01-29T19:13:06.733Z,25.80
2023-01-29T19:15:53.701Z,24.53
2023-01-29T19:18:28.580Z,22.37
2023-01-29T19:22:19.614Z,24.93
2023-01-29T19:24:52.587Z,24.07
2023-01-29T19:27:26.436Z,23.47
2023-01-29T19:29:59.098Z,22.17
2023-01-29T19:32:30.421Z,20.53
2023-01-29T19:35:02.643Z,23.30
2023-01-29T19:37:33.065Z,24.23
2023-01-29T19:40:09.082Z,23.03
2023-01-29T19:42:45.866Z,22.77
2023-01-29T19:45:49.782Z,23.87
2023-01-29T19:48:25.027Z,27.27
2023-01-29T19:50:56.617Z,25.20
2023-01-29T19:53:28.082Z,24.93
2023-01-29T19:56:08.035Z,28.73
2023-01-29T19:58:41.944Z,23.27
2023-01-29T20:01:18.628Z,33.40
2023-01-29T20:03:51.607Z,26.43
2023-01-29T20:06:50.710Z,24.70
2023-01-29T20:09:20.954Z,23.13
2023-01-29T20:11:54.708Z,25.47
2023-01-29T20:14:25.432Z,29.30
2023-01-29T20:16:56.805Z,25.60
2023-01-29T20:19:32.756Z,26.63
2023-01-29T20:22:01.963Z,26.77
2023-01-29T20:24:35.732Z,27.90
2023-01-29T20:27:08.696Z,38.47
2023-01-29T20:29:43.713Z,35.33
2023-01-29T20:32:15.622Z,33.63
2023-01-29T20:34:52.145Z,37.63
2023-01-29T20:37:24.909Z,34.20
2023-01-29T20:39:55.730Z,33.93
2023-01-29T20:42:27.736Z,32.90
2023-01-29T20:45:00.660Z,33.07
2023-01-29T20:47:34.108Z,34.13
2023-01-29T20:50:12.388Z,32.40
2023-01-29T20:52:44.856Z,30.27
2023-01-29T20:55:17.987Z,29.87
2023-01-29T20:58:06.332Z,29.17
2023-01-29T21:00:39.392Z,32.13
2023-01-29T21:03:09.395Z,32.23
2023-01-29T21:05:39.421Z,27.70
2023-01-29T21:08:09.792Z,28.03
2023-01-29T21:10:49.663Z,27.87
2023-01-29T21:13:21.586Z,32.10
2023-01-29T21:15:53.501Z,27.00
2023-01-29T21:18:28.029Z,27.60
2023-01-29T21:20:59.579Z,29.47
2023-01-29T21:23:29.805Z,25.60
2023-01-29T21:26:04.856Z,33.33
2023-01-29T21:28:36.955Z,21.60
2023-01-29T21:31:10.486Z,26.20
2023-01-29T21:33:40.232Z,23.87
2023-01-29T21:36:12.572Z,23.60
2023-01-29T21:38:42.166Z,26.17
2023-01-29T21:41:11.790Z,20.70
2023-01-29T21:43:41.660Z,23.90
2023-01-29T21:46:12.675Z,31.97
2023-01-29T21:48:42.492Z,19.90
2023-01-29T21:51:11.838Z,19.40
2023-01-29T21:53:40.751Z,26.60
2023-01-29T21:56:09.851Z,24.17
2023-01-29T21:58:38.699Z,19.47
2023-01-29T22:01:35.156Z,22.03
2023-01-29T22:03:58.171Z,20.63
2023-01-29T22:06:27.412Z,22.70
2023-01-29T22:08:56.381Z,25.37
2023-01-29T22:11:25.172Z,21.93
2023-01-29T22:13:54.019Z,22.50
2023-01-29T22:16:24.284Z,22.73
2023-01-29T22:18:53.053Z,21.37
2023-01-29T22:21:21.960Z,23.47
2023-01-29T22:23:51.042Z,18.83
2023-01-29T22:26:19.869Z,19.27
2023-01-29T22:28:48.667Z,21.90
2023-01-29T22:31:17.472Z,20.10
2023-01-29T22:33:47.615Z,21.07
2023-01-29T22:36:16.429Z,22.73
2023-01-29T22:38:45.487Z,18.30
2023-01-29T22:41:14.899Z,22.27
2023-01-29T22:43:44.261Z,19.07
2023-01-29T22:46:13.211Z,24.37
2023-01-29T22:48:42.014Z,19.87
2023-01-29T22:51:14.023Z,25.60
2023-01-29T22:53:44.649Z,22.27
2023-01-29T22:56:13.599Z,21.27
2023-01-29T22:58:42.638Z,19.60
2023-01-29T23:01:11.800Z,16.80
2023-01-29T23:03:40.615Z,18.90
2023-01-29T23:06:09.420Z,16.53
2023-01-29T23:08:39.621Z,20.87
2023-01-29T23:11:15.589Z,23.10
2023-01-29T23:13:45.922Z,18.13
2023-01-29T23:16:15.724Z,16.20
2023-01-29T23:18:45.137Z,17.87
2023-01-29T23:21:13.962Z,16.17
2023-01-29T23:23:45.122Z,18.67
2023-01-29T23:26:32.131Z,17.67
2023-01-29T23:29:01.710Z,20.43
2023-01-29T23:31:30.499Z,17.00
2023-01-29T23:33:59.557Z,17.67
2023-01-29T23:36:28.640Z,18.37
2023-01-29T23:38:59.013Z,16.67
2023-01-29T23:41:27.833Z,17.53
2023-01-29T23:43:56.579Z,19.60
2023-01-29T23:46:25.439Z,19.83
2023-01-29T23:48:54.250Z,19.93
2023-01-29T23:51:23.104Z,21.73
2023-01-29T23:53:51.875Z,18.13
2023-01-29T23:56:22.253Z,20.67
2023-01-29T23:58:55.100Z,19.80
